Time;durP1;ratioP1;P1;durP2;ratioP2;P2;SDS_P1;SDS_P2;PMS_P1;PMS_P2;Temp;Humidity;BMP_temperature;BMP_pressure;BME280_temperature;BME280_humidity;BME280_pressure;Samples;Min_cycle;Max_cycle;Signal;HPM_P1;HPM_P2
2022/02/28 00:00:28;;;;;;;2.92;1.73;;;;;;;;;;5080004;28;20027;-45
2022/02/28 00:02:54;;;;;;;2.67;1.70;;;;;;;;;;5082172;28;20038;-46
2022/02/28 00:05:20;;;;;;;2.28;1.60;;;;;;;;;;5082235;28;20031;-47
2022/02/28 00:07:46;;;;;;;2.13;1.35;;;;;;;;;;5081804;28;20020;-49
2022/02/28 00:10:12;;;;;;;2.60;1.48;;;;;;;;;;5080194;28;20090;-46
2022/02/28 00:12:38;;;;;;;2.65;1.70;;;;;;;;;;5081138;28;20029;-49
2022/02/28 00:15:06;;;;;;;3.42;1.92;;;;;;;;;;5078349;28;20076;-45
2022/02/28 00:17:33;;;;;;;2.53;1.80;;;;;;;;;;5081454;28;20088;-45
2022/02/28 00:19:59;;;;;;;3.08;1.55;;;;;;;;;;5081459;28;20063;-44
2022/02/28 00:22:25;;;;;;;2.55;1.75;;;;;;;;;;5081881;28;20039;-45
2022/02/28 00:24:51;;;;;;;3.20;1.70;;;;;;;;;;5079104;28;20024;-47
2022/02/28 00:27:17;;;;;;;3.17;1.40;;;;;;;;;;5080627;28;20024;-47
2022/02/28 00:29:43;;;;;;;3.08;2.42;;;;;;;;;;5080036;28;20374;-46
2022/02/28 00:32:09;;;;;;;2.53;1.58;;;;;;;;;;5077663;28;20493;-45
2022/02/28 00:34:35;;;;;;;3.17;2.05;;;;;;;;;;5080883;28;20035;-48
2022/02/28 00:37:01;;;;;;;2.20;1.58;;;;;;;;;;5082057;28;20024;-49
2022/02/28 00:39:28;;;;;;;3.20;1.67;;;;;;;;;;5082299;28;20042;-46
2022/02/28 00:41:54;;;;;;;2.83;1.58;;;;;;;;;;5079304;28;20551;-46
2022/02/28 00:44:20;;;;;;;3.50;2.42;;;;;;;;;;5078001;28;20064;-46
2022/02/28 00:46:46;;;;;;;1.95;1.30;;;;;;;;;;5078856;28;20089;-45
2022/02/28 00:49:12;;;;;;;2.38;1.50;;;;;;;;;;5080077;28;20024;-45
2022/02/28 00:51:38;;;;;;;2.05;1.70;;;;;;;;;;5088401;28;20469;-46
2022/02/28 00:54:04;;;;;;;2.40;1.80;;;;;;;;;;5091213;28;20024;-44
2022/02/28 00:56:30;;;;;;;2.40;1.67;;;;;;;;;;5092076;28;20028;-48
2022/02/28 00:58:56;;;;;;;2.38;1.60;;;;;;;;;;5091626;28;20070;-47
2022/02/28 01:01:22;;;;;;;3.00;1.52;;;;;;;;;;5090299;28;20032;-44
2022/02/28 01:03:48;;;;;;;2.05;1.50;;;;;;;;;;5076098;28;20031;-46
2022/02/28 01:06:14;;;;;;;3.38;2.28;;;;;;;;;;5080039;28;20493;-44
2022/02/28 01:08:40;;;;;;;4.63;2.10;;;;;;;;;;5071651;28;20067;-45
2022/02/28 01:11:06;;;;;;;2.95;1.58;;;;;;;;;;5071132;28;20074;-45
2022/02/28 01:13:32;;;;;;;2.55;1.60;;;;;;;;;;5072678;28;20052;-47
2022/02/28 01:15:58;;;;;;;2.13;1.70;;;;;;;;;;5086005;28;20123;-45
2022/02/28 01:18:24;;;;;;;2.40;1.70;;;;;;;;;;5091384;28;20036;-45
2022/02/28 01:20:51;;;;;;;2.88;1.95;;;;;;;;;;5091433;28;20039;-49
2022/02/28 01:23:18;;;;;;;2.47;1.67;;;;;;;;;;5089570;28;20021;-47
2022/02/28 01:25:44;;;;;;;2.97;1.92;;;;;;;;;;5091557;28;20420;-48
2022/02/28 01:28:10;;;;;;;2.70;1.80;;;;;;;;;;5094222;28;20482;-48
2022/02/28 01:30:36;;;;;;;3.10;2.05;;;;;;;;;;5075048;28;20103;-46
2022/02/28 01:33:03;;;;;;;2.53;1.52;;;;;;;;;;5072058;28;20024;-49
2022/02/28 01:35:29;;;;;;;2.50;1.60;;;;;;;;;;5095284;28;20028;-50
2022/02/28 01:37:55;;;;;;;2.33;1.70;;;;;;;;;;5080747;28;20100;-46
2022/02/28 01:40:21;;;;;;;2.92;1.65;;;;;;;;;;5083662;28;20043;-47
2022/02/28 01:42:47;;;;;;;7.68;2.22;;;;;;;;;;5093122;28;20480;-49
2022/02/28 01:45:15;;;;;;;2.28;1.45;;;;;;;;;;5075525;28;20478;-45
2022/02/28 01:47:41;;;;;;;2.38;1.80;;;;;;;;;;5074865;28;20063;-45
2022/02/28 01:50:07;;;;;;;2.33;1.73;;;;;;;;;;5074254;28;20031;-44
2022/02/28 01:52:33;;;;;;;2.42;1.58;;;;;;;;;;5089002;28;20039;-46
2022/02/28 01:54:59;;;;;;;2.70;1.70;;;;;;;;;;5094890;28;20020;-48
2022/02/28 01:57:25;;;;;;;3.10;2.17;;;;;;;;;;5081341;28;20024;-48
2022/02/28 01:59:51;;;;;;;2.50;1.90;;;;;;;;;;5074196;28;20473;-47
2022/02/28 02:02:17;;;;;;;2.22;1.52;;;;;;;;;;5075634;28;20039;-48
2022/02/28 02:04:43;;;;;;;2.03;1.67;;;;;;;;;;5079378;28;20477;-47
2022/02/28 02:07:10;;;;;;;2.70;1.52;;;;;;;;;;5094155;28;20377;-50
2022/02/28 02:09:36;;;;;;;3.60;1.55;;;;;;;;;;5094474;28;20511;-45
2022/02/28 02:12:04;;;;;;;2.80;1.80;;;;;;;;;;5093809;28;20043;-45
2022/02/28 02:14:34;;;;;;;2.80;1.67;;;;;;;;;;5094060;28;20400;-44
2022/02/28 02:17:00;;;;;;;2.42;1.88;;;;;;;;;;5082760;28;20028;-46
2022/02/28 02:19:26;;;;;;;2.60;1.80;;;;;;;;;;5073376;28;20473;-44
2022/02/28 02:21:52;;;;;;;2.13;1.80;;;;;;;;;;5074887;28;20037;-45
2022/02/28 02:24:18;;;;;;;2.92;2.05;;;;;;;;;;5073256;28;20039;-45
2022/02/28 02:26:44;;;;;;;3.28;1.95;;;;;;;;;;5074000;28;20032;-44
2022/02/28 02:29:10;;;;;;;2.10;1.77;;;;;;;;;;5073495;28;20017;-45
2022/02/28 02:31:36;;;;;;;2.25;2.00;;;;;;;;;;5090592;28;20389;-45
2022/02/28 02:34:02;;;;;;;1.75;1.30;;;;;;;;;;5073902;28;20021;-44
2022/02/28 02:36:28;;;;;;;2.35;1.85;;;;;;;;;;5074279;28;20028;-46
2022/02/28 02:38:54;;;;;;;3.28;2.00;;;;;;;;;;5073412;28;20021;-47
2022/02/28 02:41:21;;;;;;;1.88;1.50;;;;;;;;;;5073618;28;20329;-44
2022/02/28 02:43:47;;;;;;;4.32;1.65;;;;;;;;;;5087193;28;20031;-45
2022/02/28 02:46:13;;;;;;;2.40;1.60;;;;;;;;;;5072698;28;20035;-46
2022/02/28 02:48:39;;;;;;;2.67;1.80;;;;;;;;;;5073762;28;20021;-45
2022/02/28 02:51:05;;;;;;;2.45;1.88;;;;;;;;;;5074078;28;20043;-48
2022/02/28 02:53:31;;;;;;;1.92;1.50;;;;;;;;;;5091818;28;20412;-47
2022/02/28 02:55:58;;;;;;;2.22;1.58;;;;;;;;;;5093891;28;20024;-45
2022/02/28 02:58:24;;;;;;;2.72;1.90;;;;;;;;;;5093023;28;20260;-45
2022/02/28 03:00:52;;;;;;;2.55;1.90;;;;;;;;;;5077863;28;20412;-45
2022/02/28 03:03:19;;;;;;;2.22;1.77;;;;;;;;;;5088810;28;20032;-45
2022/02/28 03:05:46;;;;;;;2.10;1.67;;;;;;;;;;5078321;28;20035;-44
2022/02/28 03:08:12;;;;;;;3.63;2.17;;;;;;;;;;5072562;28;20055;-44
2022/02/28 03:10:38;;;;;;;3.60;1.90;;;;;;;;;;5073241;28;20467;-45
2022/02/28 03:13:04;;;;;;;3.65;2.03;;;;;;;;;;5092486;28;20050;-45
2022/02/28 03:15:30;;;;;;;1.98;1.63;;;;;;;;;;5093019;28;20084;-45
2022/02/28 03:17:56;;;;;;;3.47;2.00;;;;;;;;;;5093015;28;20021;-44
2022/02/28 03:20:22;;;;;;;2.60;1.58;;;;;;;;;;5092323;28;20039;-46
2022/02/28 03:22:49;;;;;;;2.22;1.60;;;;;;;;;;5073622;28;20035;-44
2022/02/28 03:25:15;;;;;;;2.72;1.55;;;;;;;;;;5086033;28;20130;-45
2022/02/28 03:27:41;;;;;;;1.98;1.70;;;;;;;;;;5074714;28;20478;-46
2022/02/28 03:30:08;;;;;;;2.83;1.77;;;;;;;;;;5084289;28;20107;-45
2022/02/28 03:32:35;;;;;;;2.60;1.75;;;;;;;;;;5075637;28;20031;-47
2022/02/28 03:35:01;;;;;;;2.58;1.80;;;;;;;;;;5072555;28;20500;-45
2022/02/28 03:37:27;;;;;;;2.63;1.70;;;;;;;;;;5071807;28;20477;-45
2022/02/28 03:39:55;;;;;;;2.05;1.58;;;;;;;;;;5072986;28;20114;-46
2022/02/28 03:42:21;;;;;;;2.95;1.63;;;;;;;;;;5073014;28;20025;-46
2022/02/28 03:44:47;;;;;;;2.58;1.90;;;;;;;;;;5074727;28;20035;-44
2022/02/28 03:47:13;;;;;;;2.65;1.80;;;;;;;;;;5072038;28;20389;-45
2022/02/28 03:49:39;;;;;;;2.13;1.60;;;;;;;;;;5072872;28;20020;-44
2022/02/28 03:52:06;;;;;;;4.25;1.70;;;;;;;;;;5072766;28;20021;-45
2022/02/28 03:54:32;;;;;;;2.08;1.50;;;;;;;;;;5086351;28;20032;-49
2022/02/28 03:56:58;;;;;;;3.53;1.90;;;;;;;;;;5092358;28;20077;-47
2022/02/28 03:59:24;;;;;;;2.13;1.73;;;;;;;;;;5091615;28;20033;-49
2022/02/28 04:01:50;;;;;;;2.13;1.50;;;;;;;;;;5077519;28;20036;-46
2022/02/28 04:04:17;;;;;;;3.53;1.70;;;;;;;;;;5072008;28;20500;-48
2022/02/28 04:06:45;;;;;;;2.50;1.85;;;;;;;;;;5072679;28;20036;-50
2022/02/28 04:09:12;;;;;;;3.03;1.65;;;;;;;;;;5071639;28;20036;-46
2022/02/28 04:11:38;;;;;;;2.25;1.58;;;;;;;;;;5081274;28;20481;-46
2022/02/28 04:14:04;;;;;;;3.20;1.60;;;;;;;;;;5082087;28;20029;-45
2022/02/28 04:16:30;;;;;;;2.25;1.70;;;;;;;;;;5071755;28;20085;-45
2022/02/28 04:18:56;;;;;;;2.63;1.58;;;;;;;;;;5076167;28;20013;-46
2022/02/28 04:21:23;;;;;;;2.15;1.42;;;;;;;;;;5072683;28;20112;-45
2022/02/28 04:23:51;;;;;;;2.00;1.40;;;;;;;;;;5072139;28;20025;-44
2022/02/28 04:26:18;;;;;;;2.55;1.83;;;;;;;;;;5071613;28;20017;-44
2022/02/28 04:28:44;;;;;;;2.67;1.90;;;;;;;;;;5072037;28;20048;-47
2022/02/28 04:31:10;;;;;;;2.47;2.05;;;;;;;;;;5076327;28;20043;-46
2022/02/28 04:33:36;;;;;;;2.97;1.80;;;;;;;;;;5092254;28;20020;-44
2022/02/28 04:36:02;;;;;;;2.22;1.60;;;;;;;;;;5086147;28;20454;-45
2022/02/28 04:38:28;;;;;;;1.95;1.38;;;;;;;;;;5071406;28;20040;-47
2022/02/28 04:40:54;;;;;;;2.33;1.92;;;;;;;;;;5073163;28;20028;-45
2022/02/28 04:43:20;;;;;;;2.40;1.63;;;;;;;;;;5073855;28;20054;-45
2022/02/28 04:45:46;;;;;;;3.35;2.03;;;;;;;;;;5092345;28;20039;-44
2022/02/28 04:48:12;;;;;;;1.83;1.58;;;;;;;;;;5091150;28;20032;-47
2022/02/28 04:50:38;;;;;;;2.25;1.58;;;;;;;;;;5090145;28;20024;-48
2022/02/28 04:53:04;;;;;;;2.42;1.73;;;;;;;;;;5072161;28;20106;-46
2022/02/28 04:55:30;;;;;;;3.30;1.65;;;;;;;;;;5071398;28;20408;-47
2022/02/28 04:57:56;;;;;;;2.03;1.88;;;;;;;;;;5071867;28;20021;-49
2022/02/28 05:00:22;;;;;;;2.10;1.75;;;;;;;;;;5071092;28;20070;-45
2022/02/28 05:02:48;;;;;;;1.65;1.30;;;;;;;;;;5075979;28;20355;-48
2022/02/28 05:05:14;;;;;;;2.88;1.63;;;;;;;;;;5074939;28;20024;-46
2022/02/28 05:07:40;;;;;;;2.78;2.22;;;;;;;;;;5075623;28;20384;-47
2022/02/28 05:10:07;;;;;;;3.03;1.80;;;;;;;;;;5075477;28;20032;-48
2022/02/28 05:12:33;;;;;;;2.55;1.80;;;;;;;;;;5091964;28;20031;-45
2022/02/28 05:14:59;;;;;;;3.53;1.80;;;;;;;;;;5095069;28;20430;-48
2022/02/28 05:17:25;;;;;;;1.98;1.45;;;;;;;;;;5095176;28;20385;-49
2022/02/28 05:19:51;;;;;;;2.83;1.80;;;;;;;;;;5079409;28;20032;-44
2022/02/28 05:22:17;;;;;;;2.08;1.60;;;;;;;;;;5075835;28;20036;-48
2022/02/28 05:24:42;;;;;;;2.63;1.83;;;;;;;;;;5075503;28;20035;-47
2022/02/28 05:27:09;;;;;;;2.60;2.17;;;;;;;;;;5091350;28;20024;-46
2022/02/28 05:29:38;;;;;;;2.72;2.03;;;;;;;;;;5094949;28;20031;-50
2022/02/28 05:32:04;;;;;;;2.30;1.52;;;;;;;;;;5094895;28;20019;-49
2022/02/28 05:34:30;;;;;;;3.22;2.17;;;;;;;;;;5088115;28;20024;-46
2022/02/28 05:36:56;;;;;;;3.28;1.95;;;;;;;;;;5075112;28;20086;-45
2022/02/28 05:39:22;;;;;;;4.28;2.00;;;;;;;;;;5074722;28;20481;-45
2022/02/28 05:41:48;;;;;;;2.28;1.85;;;;;;;;;;5075827;28;20028;-46
2022/02/28 05:44:14;;;;;;;2.35;1.70;;;;;;;;;;5084465;28;20384;-44
2022/02/28 05:46:40;;;;;;;2.83;1.88;;;;;;;;;;5095014;28;20028;-46
2022/02/28 05:49:06;;;;;;;2.38;1.88;;;;;;;;;;5095159;28;20020;-48
2022/02/28 05:51:32;;;;;;;3.10;1.67;;;;;;;;;;5094141;28;20418;-48
2022/02/28 05:53:59;;;;;;;3.83;2.30;;;;;;;;;;5094691;28;20095;-48
2022/02/28 05:56:25;;;;;;;2.75;1.92;;;;;;;;;;5094339;28;20038;-44
2022/02/28 05:58:51;;;;;;;2.88;1.90;;;;;;;;;;5082973;28;20023;-47
2022/02/28 06:01:17;;;;;;;3.33;2.05;;;;;;;;;;5083540;28;20063;-47
2022/02/28 06:03:43;;;;;;;3.50;1.83;;;;;;;;;;5083267;28;20032;-46
2022/02/28 06:06:09;;;;;;;2.70;1.75;;;;;;;;;;5081812;28;20012;-44
2022/02/28 06:08:37;;;;;;;3.75;2.38;;;;;;;;;;5085176;28;20031;-45
2022/02/28 06:11:03;;;;;;;3.75;1.75;;;;;;;;;;5083721;28;20081;-45
2022/02/28 06:13:29;;;;;;;3.10;2.20;;;;;;;;;;5080909;28;20420;-46
2022/02/28 06:15:55;;;;;;;2.22;1.75;;;;;;;;;;5082591;28;20076;-45
2022/02/28 06:18:21;;;;;;;2.13;1.75;;;;;;;;;;5081763;28;20028;-47
2022/02/28 06:20:47;;;;;;;2.30;2.00;;;;;;;;;;5086846;28;20032;-45
2022/02/28 06:23:16;;;;;;;2.60;1.90;;;;;;;;;;5093216;28;20039;-44
2022/02/28 06:25:43;;;;;;;2.92;1.80;;;;;;;;;;5094224;28;20411;-45
2022/02/28 06:28:09;;;;;;;2.20;1.67;;;;;;;;;;5081672;28;20025;-47
2022/02/28 06:30:35;;;;;;;4.35;2.65;;;;;;;;;;5073319;28;20415;-49
2022/02/28 06:33:02;;;;;;;6.57;2.42;;;;;;;;;;5074007;28;20059;-44
2022/02/28 06:35:28;;;;;;;2.72;1.75;;;;;;;;;;5073569;28;20355;-47
2022/02/28 06:37:54;;;;;;;2.20;1.60;;;;;;;;;;5074197;28;20093;-46
2022/02/28 06:40:20;;;;;;;2.22;1.67;;;;;;;;;;5073072;28;20035;-48
2022/02/28 06:42:46;;;;;;;3.20;2.08;;;;;;;;;;5093486;28;20025;-46
2022/02/28 06:45:12;;;;;;;2.85;1.95;;;;;;;;;;5075334;28;20103;-46
2022/02/28 06:47:38;;;;;;;2.33;1.60;;;;;;;;;;5073048;28;20033;-47
2022/02/28 06:50:05;;;;;;;2.83;1.80;;;;;;;;;;5073200;28;20048;-45
2022/02/28 06:52:31;;;;;;;2.70;1.83;;;;;;;;;;5089400;28;20020;-45
2022/02/28 06:54:57;;;;;;;5.28;2.78;;;;;;;;;;5093479;28;20025;-47
2022/02/28 06:57:24;;;;;;;4.38;2.00;;;;;;;;;;5093850;28;20082;-47
2022/02/28 06:59:50;;;;;;;4.05;2.28;;;;;;;;;;5086915;28;20020;-45
2022/02/28 07:02:16;;;;;;;4.45;2.42;;;;;;;;;;5072898;28;20097;-50
2022/02/28 07:04:42;;;;;;;3.63;2.10;;;;;;;;;;5073356;28;20059;-47
2022/02/28 07:07:08;;;;;;;3.63;2.10;;;;;;;;;;5072961;28;20055;-46
2022/02/28 07:09:34;;;;;;;4.70;2.47;;;;;;;;;;5091910;28;20421;-45
2022/02/28 07:12:00;;;;;;;8.73;3.20;;;;;;;;;;5093499;28;20062;-49
2022/02/28 07:14:26;;;;;;;5.13;2.63;;;;;;;;;;5088112;28;20064;-45
2022/02/28 07:16:52;;;;;;;6.60;3.05;;;;;;;;;;5073197;28;20024;-46
2022/02/28 07:19:18;;;;;;;7.38;3.38;;;;;;;;;;5072756;28;20020;-44
2022/02/28 07:21:45;;;;;;;6.43;3.08;;;;;;;;;;5073444;28;20424;-45
2022/02/28 07:24:11;;;;;;;6.38;2.70;;;;;;;;;;5074223;28;20032;-44
2022/02/28 07:26:37;;;;;;;3.63;2.00;;;;;;;;;;5087522;28;20288;-44
2022/02/28 07:29:03;;;;;;;3.67;2.00;;;;;;;;;;5092674;28;20020;-46
2022/02/28 07:31:29;;;;;;;4.60;2.10;;;;;;;;;;5091987;28;20046;-47
2022/02/28 07:33:55;;;;;;;7.28;2.60;;;;;;;;;;5092967;28;20015;-44
2022/02/28 07:36:21;;;;;;;4.93;2.22;;;;;;;;;;5092011;28;20032;-47
2022/02/28 07:38:47;;;;;;;7.15;2.65;;;;;;;;;;5082331;28;20036;-47
2022/02/28 07:41:13;;;;;;;8.90;3.08;;;;;;;;;;5082980;28;20039;-48
2022/02/28 07:43:39;;;;;;;7.25;2.60;;;;;;;;;;5088636;28;20105;-44
2022/02/28 07:46:05;;;;;;;4.55;2.38;;;;;;;;;;5066231;28;20027;-44
2022/02/28 07:48:31;;;;;;;8.55;2.38;;;;;;;;;;5087747;28;20031;-46
2022/02/28 07:50:57;;;;;;;4.88;2.47;;;;;;;;;;5092637;28;20043;-45
2022/02/28 07:53:23;;;;;;;9.02;2.42;;;;;;;;;;5091843;28;20031;-45
2022/02/28 07:55:49;;;;;;;3.95;1.95;;;;;;;;;;5090742;28;20020;-45
2022/02/28 07:58:15;;;;;;;6.45;2.72;;;;;;;;;;5076751;28;20138;-45
2022/02/28 08:00:41;;;;;;;8.68;2.53;;;;;;;;;;5078508;28;20025;-46
2022/02/28 08:03:07;;;;;;;5.18;2.55;;;;;;;;;;5072029;28;20025;-45
2022/02/28 08:05:34;;;;;;;3.78;2.15;;;;;;;;;;5081649;28;20114;-44
2022/02/28 08:08:00;;;;;;;4.78;2.03;;;;;;;;;;5084640;28;20016;-45
2022/02/28 08:10:26;;;;;;;6.10;2.55;;;;;;;;;;5077014;28;20024;-48
2022/02/28 08:12:52;;;;;;;4.53;2.33;;;;;;;;;;5087940;28;20031;-45
2022/02/28 08:15:18;;;;;;;3.85;2.20;;;;;;;;;;5081462;28;20098;-47
2022/02/28 08:17:45;;;;;;;5.97;2.30;;;;;;;;;;5089936;28;20473;-48
2022/02/28 08:20:11;;;;;;;3.30;2.15;;;;;;;;;;5087681;28;20111;-44
2022/02/28 08:22:37;;;;;;;5.25;2.33;;;;;;;;;;5086275;28;20089;-50
2022/02/28 08:25:03;;;;;;;4.93;2.10;;;;;;;;;;5081712;28;20112;-48
2022/02/28 08:27:29;;;;;;;6.75;2.35;;;;;;;;;;5071027;28;20016;-45
2022/02/28 08:29:55;;;;;;;7.03;2.78;;;;;;;;;;5076103;28;20502;-47
2022/02/28 08:32:21;;;;;;;4.88;2.67;;;;;;;;;;5072154;28;20389;-46
2022/02/28 08:34:47;;;;;;;4.22;2.13;;;;;;;;;;5067880;28;20024;-45
2022/02/28 08:37:13;;;;;;;4.13;2.33;;;;;;;;;;5094021;28;20028;-46
2022/02/28 08:39:39;;;;;;;5.90;3.40;;;;;;;;;;5095353;28;20977;-46
2022/02/28 08:42:06;;;;;;;3.90;2.60;;;;;;;;;;5077031;28;20032;-45
2022/02/28 08:44:32;;;;;;;4.75;2.83;;;;;;;;;;5079054;28;20039;-44
2022/02/28 08:46:58;;;;;;;6.85;3.03;;;;;;;;;;5081021;28;20036;-45
2022/02/28 08:49:24;;;;;;;5.22;2.60;;;;;;;;;;5087355;28;20028;-45
2022/02/28 08:51:52;;;;;;;6.55;2.42;;;;;;;;;;5075403;28;20447;-44
2022/02/28 08:54:18;;;;;;;5.57;3.33;;;;;;;;;;5090455;28;20020;-45
2022/02/28 08:56:44;;;;;;;4.68;2.65;;;;;;;;;;5095149;28;20028;-44
2022/02/28 08:59:10;;;;;;;5.28;2.67;;;;;;;;;;5085996;28;20020;-44
2022/02/28 09:01:36;;;;;;;7.55;3.40;;;;;;;;;;5074719;28;20059;-44
2022/02/28 09:04:02;;;;;;;5.13;3.08;;;;;;;;;;5074922;28;20536;-45
2022/02/28 09:06:28;;;;;;;4.90;2.65;;;;;;;;;;5074664;28;20031;-45
2022/02/28 09:08:55;;;;;;;6.05;2.85;;;;;;;;;;5075440;28;20035;-44
2022/02/28 09:11:22;;;;;;;4.65;2.88;;;;;;;;;;5084795;28;20031;-47
2022/02/28 09:13:48;;;;;;;3.70;2.45;;;;;;;;;;5094518;28;20482;-45
2022/02/28 09:16:14;;;;;;;5.55;3.03;;;;;;;;;;5089541;28;20481;-46
2022/02/28 09:18:40;;;;;;;4.68;2.78;;;;;;;;;;5094922;28;20039;-44
2022/02/28 09:21:07;;;;;;;4.80;3.05;;;;;;;;;;5095270;28;20107;-45
2022/02/28 09:23:33;;;;;;;4.80;2.53;;;;;;;;;;5078006;28;20044;-45
2022/02/28 09:25:59;;;;;;;4.65;2.72;;;;;;;;;;5089858;28;20024;-47
2022/02/28 09:28:25;;;;;;;4.78;2.83;;;;;;;;;;5082498;28;20024;-44
2022/02/28 09:30:52;;;;;;;5.70;2.58;;;;;;;;;;5086218;28;20485;-45
2022/02/28 09:33:19;;;;;;;3.83;2.63;;;;;;;;;;5074939;28;20374;-44
2022/02/28 09:35:45;;;;;;;3.50;2.60;;;;;;;;;;5074208;28;20021;-48
2022/02/28 09:38:12;;;;;;;3.65;2.60;;;;;;;;;;5074755;28;20025;-44
2022/02/28 09:40:38;;;;;;;5.47;2.72;;;;;;;;;;5074118;28;20035;-45
2022/02/28 09:43:05;;;;;;;5.07;3.28;;;;;;;;;;5082802;28;20031;-45
2022/02/28 09:45:31;;;;;;;4.55;2.97;;;;;;;;;;5076909;28;20434;-45
2022/02/28 09:47:57;;;;;;;6.13;2.97;;;;;;;;;;5094547;28;20362;-46
2022/02/28 09:50:25;;;;;;;5.95;3.25;;;;;;;;;;5094079;28;20522;-45
2022/02/28 09:52:51;;;;;;;6.10;3.33;;;;;;;;;;5094510;28;20111;-46
2022/02/28 09:55:18;;;;;;;3.30;2.25;;;;;;;;;;5094701;28;20070;-45
2022/02/28 09:57:45;;;;;;;5.25;2.53;;;;;;;;;;5093906;28;20465;-45
2022/02/28 10:00:12;;;;;;;4.45;2.38;;;;;;;;;;5094727;28;20411;-45
2022/02/28 10:02:38;;;;;;;5.38;2.63;;;;;;;;;;5093971;28;20024;-48
2022/02/28 10:05:05;;;;;;;4.55;2.42;;;;;;;;;;5094544;28;20031;-47
2022/02/28 10:07:31;;;;;;;5.60;2.58;;;;;;;;;;5093657;28;20073;-48
2022/02/28 10:10:03;;;;;;;4.45;2.50;;;;;;;;;;5094438;28;20024;-45
2022/02/28 10:12:32;;;;;;;4.43;2.90;;;;;;;;;;5093740;28;20024;-46
2022/02/28 10:15:02;;;;;;;3.08;2.10;;;;;;;;;;5093384;28;20048;-47
2022/02/28 10:17:40;;;;;;;4.90;2.72;;;;;;;;;;5092499;28;20024;-46
2022/02/28 10:20:13;;;;;;;3.47;2.25;;;;;;;;;;5080543;28;20501;-45
2022/02/28 10:22:39;;;;;;;5.65;2.67;;;;;;;;;;5074128;28;20028;-45
2022/02/28 10:25:05;;;;;;;4.70;3.10;;;;;;;;;;5089659;28;20036;-46
2022/02/28 10:27:31;;;;;;;4.53;2.50;;;;;;;;;;5092712;28;20445;-45
2022/02/28 10:29:57;;;;;;;3.88;2.45;;;;;;;;;;5093397;28;20020;-46
2022/02/28 10:32:27;;;;;;;5.18;3.20;;;;;;;;;;5085402;28;20043;-48
2022/02/28 10:37:45;;;;;;;5.18;2.85;;;;;;;;;;5086050;28;20503;-47
2022/02/28 10:40:11;;;;;;;4.32;2.80;;;;;;;;;;5093259;28;20504;-46
2022/02/28 10:42:44;;;;;;;6.65;3.35;;;;;;;;;;5093089;28;20380;-45
2022/02/28 10:45:17;;;;;;;5.38;2.88;;;;;;;;;;5075665;28;20381;-44
2022/02/28 10:47:47;;;;;;;4.50;2.50;;;;;;;;;;5084120;28;20455;-49
2022/02/28 10:50:13;;;;;;;4.53;3.00;;;;;;;;;;5091563;28;20388;-46
2022/02/28 10:52:54;;;;;;;4.38;2.42;;;;;;;;;;5083794;28;20423;-49
2022/02/28 10:55:30;;;;;;;2.80;2.10;;;;;;;;;;5087805;28;20074;-45
2022/02/28 10:58:10;;;;;;;3.47;2.92;;;;;;;;;;5087808;28;20105;-45
2022/02/28 11:00:51;;;;;;;3.00;2.55;;;;;;;;;;5088513;28;20411;-45
2022/02/28 11:03:17;;;;;;;5.15;2.38;;;;;;;;;;5072942;28;20032;-47
2022/02/28 11:05:54;;;;;;;5.43;2.88;;;;;;;;;;5072519;28;20446;-44
2022/02/28 11:08:20;;;;;;;2.88;2.33;;;;;;;;;;5073144;28;20470;-47
2022/02/28 11:10:47;;;;;;;4.90;2.90;;;;;;;;;;5072267;28;20021;-49
2022/02/28 11:13:14;;;;;;;3.05;2.20;;;;;;;;;;5078654;28;20073;-48
2022/02/28 11:15:40;;;;;;;3.67;2.13;;;;;;;;;;5088289;28;20052;-47
2022/02/28 11:18:07;;;;;;;4.38;2.63;;;;;;;;;;5072966;28;20024;-45
2022/02/28 11:20:33;;;;;;;3.35;2.20;;;;;;;;;;5074328;28;20115;-45
2022/02/28 11:23:04;;;;;;;3.63;2.70;;;;;;;;;;5085577;28;20028;-46
2022/02/28 11:25:30;;;;;;;3.58;2.47;;;;;;;;;;5092404;28;20027;-44
2022/02/28 11:27:58;;;;;;;3.55;2.30;;;;;;;;;;5086707;28;20024;-44
2022/02/28 11:30:25;;;;;;;3.33;2.03;;;;;;;;;;5087687;28;20023;-49
2022/02/28 11:32:55;;;;;;;3.85;2.25;;;;;;;;;;5089780;28;20099;-45
2022/02/28 11:35:40;;;;;;;3.45;2.00;;;;;;;;;;5072483;28;20017;-45
2022/02/28 11:38:11;;;;;;;2.90;2.10;;;;;;;;;;5072648;28;20070;-45
2022/02/28 11:40:38;;;;;;;3.20;2.13;;;;;;;;;;5072794;28;20445;-44
2022/02/28 11:43:17;;;;;;;3.90;2.40;;;;;;;;;;5072819;28;20075;-45
2022/02/28 11:45:52;;;;;;;3.53;2.20;;;;;;;;;;5075698;28;20036;-45
2022/02/28 11:48:21;;;;;;;2.60;1.88;;;;;;;;;;5091838;28;20050;-45
2022/02/28 11:50:49;;;;;;;3.58;2.38;;;;;;;;;;5091385;28;20093;-48
2022/02/28 11:53:34;;;;;;;4.22;2.20;;;;;;;;;;5090384;28;20032;-49
2022/02/28 11:56:00;;;;;;;3.83;2.38;;;;;;;;;;5090599;28;20031;-46
2022/02/28 11:58:27;;;;;;;6.13;3.20;;;;;;;;;;5078331;28;20033;-48
2022/02/28 12:01:07;;;;;;;3.88;2.50;;;;;;;;;;5072007;28;20099;-48
2022/02/28 12:03:36;;;;;;;4.03;2.47;;;;;;;;;;5071532;28;20025;-44
2022/02/28 12:06:03;;;;;;;2.88;2.20;;;;;;;;;;5071945;28;20028;-45
2022/02/28 12:08:40;;;;;;;3.00;2.22;;;;;;;;;;5071396;28;20024;-46
2022/02/28 12:11:24;;;;;;;3.20;2.28;;;;;;;;;;5071049;28;20036;-44
2022/02/28 12:14:00;;;;;;;4.22;2.28;;;;;;;;;;5077324;28;20024;-44
2022/02/28 12:19:28;;;;;;;4.32;2.67;;;;;;;;;;5091329;28;20031;-48
2022/02/28 12:22:01;;;;;;;4.38;2.80;;;;;;;;;;5091859;28;20028;-44
2022/02/28 12:24:47;;;;;;;4.07;2.15;;;;;;;;;;5091440;28;20024;-44
2022/02/28 12:27:16;;;;;;;3.90;2.10;;;;;;;;;;5089590;28;20036;-45
2022/02/28 12:29:42;;;;;;;3.38;2.33;;;;;;;;;;5083577;28;20022;-45
2022/02/28 12:32:08;;;;;;;4.00;2.95;;;;;;;;;;5074096;28;20016;-46
2022/02/28 12:34:35;;;;;;;3.60;1.98;;;;;;;;;;5080737;28;20055;-45
2022/02/28 12:37:02;;;;;;;5.80;3.17;;;;;;;;;;5091589;28;20016;-45
2022/02/28 12:39:28;;;;;;;4.78;2.85;;;;;;;;;;5090870;28;20099;-49
2022/02/28 12:41:56;;;;;;;3.30;1.90;;;;;;;;;;5082537;28;20048;-47
2022/02/28 12:44:22;;;;;;;4.38;2.47;;;;;;;;;;5086316;28;20036;-45
2022/02/28 12:46:51;;;;;;;4.50;2.53;;;;;;;;;;5090581;28;20028;-50
2022/02/28 12:49:18;;;;;;;4.22;2.65;;;;;;;;;;5091600;28;20023;-46
2022/02/28 12:51:44;;;;;;;3.65;2.10;;;;;;;;;;5083695;28;20102;-45
2022/02/28 12:54:10;;;;;;;3.90;2.22;;;;;;;;;;5081673;28;20031;-46
2022/02/28 12:57:07;;;;;;;3.33;2.10;;;;;;;;;;5085704;28;20021;-44
2022/02/28 12:59:35;;;;;;;3.88;2.10;;;;;;;;;;5067278;28;20033;-45
2022/02/28 13:02:01;;;;;;;3.25;1.98;;;;;;;;;;5089073;28;20033;-47
2022/02/28 13:04:27;;;;;;;3.08;2.20;;;;;;;;;;5070735;28;20489;-45
2022/02/28 13:06:53;;;;;;;3.20;2.03;;;;;;;;;;5071509;28;20033;-45
2022/02/28 13:09:21;;;;;;;3.63;2.20;;;;;;;;;;5071282;28;20079;-44
2022/02/28 13:11:48;;;;;;;2.47;1.98;;;;;;;;;;5070727;28;20473;-47
2022/02/28 13:14:16;;;;;;;3.33;2.20;;;;;;;;;;5071550;28;20048;-47
2022/02/28 13:16:43;;;;;;;3.05;2.13;;;;;;;;;;5083487;28;20020;-48
2022/02/28 13:19:15;;;;;;;4.35;2.65;;;;;;;;;;5085672;28;20465;-45
2022/02/28 13:21:43;;;;;;;2.80;2.10;;;;;;;;;;5083987;28;20473;-45
2022/02/28 13:24:10;;;;;;;4.22;2.47;;;;;;;;;;5075538;28;20473;-45
2022/02/28 13:26:37;;;;;;;2.92;1.95;;;;;;;;;;5079477;28;20028;-46
2022/02/28 13:29:04;;;;;;;3.67;2.10;;;;;;;;;;5082827;28;20024;-47
2022/02/28 13:31:33;;;;;;;3.33;2.05;;;;;;;;;;5073785;28;20485;-46
2022/02/28 13:33:59;;;;;;;3.10;2.22;;;;;;;;;;5078833;28;20020;-45
2022/02/28 13:36:57;;;;;;;4.15;2.03;;;;;;;;;;5090353;28;20039;-45
2022/02/28 13:39:28;;;;;;;3.35;2.30;;;;;;;;;;5075281;28;20520;-44
2022/02/28 13:41:54;;;;;;;3.13;2.13;;;;;;;;;;5075793;28;20028;-48
2022/02/28 13:44:21;;;;;;;3.15;2.20;;;;;;;;;;5091040;28;20035;-47
2022/02/28 13:47:00;;;;;;;3.70;2.13;;;;;;;;;;5092856;28;20081;-46
2022/02/28 13:49:52;;;;;;;2.97;1.88;;;;;;;;;;5087212;28;20103;-46
2022/02/28 13:52:20;;;;;;;2.00;1.70;;;;;;;;;;5070579;28;20041;-45
2022/02/28 13:54:55;;;;;;;2.85;1.92;;;;;;;;;;5073741;28;20028;-50
2022/02/28 13:57:21;;;;;;;2.80;2.20;;;;;;;;;;5077946;28;20140;-47
2022/02/28 13:59:47;;;;;;;4.18;2.15;;;;;;;;;;5094213;28;20377;-44
2022/02/28 14:02:13;;;;;;;3.53;2.83;;;;;;;;;;5094551;28;20453;-45
2022/02/28 14:04:42;;;;;;;3.22;2.15;;;;;;;;;;5079086;28;20029;-45
2022/02/28 14:07:09;;;;;;;3.55;2.22;;;;;;;;;;5088313;28;20063;-45
2022/02/28 14:09:37;;;;;;;3.22;2.10;;;;;;;;;;5093202;28;20035;-44
2022/02/28 14:12:04;;;;;;;3.53;2.17;;;;;;;;;;5074076;28;20029;-49
2022/02/28 14:14:30;;;;;;;2.55;1.77;;;;;;;;;;5085360;28;20502;-47
2022/02/28 14:16:57;;;;;;;2.33;1.98;;;;;;;;;;5093721;28;20385;-46
2022/02/28 14:19:30;;;;;;;3.45;2.13;;;;;;;;;;5094192;28;20026;-45
2022/02/28 14:22:02;;;;;;;2.80;2.08;;;;;;;;;;5091918;28;20035;-47
2022/02/28 14:24:28;;;;;;;;;;;;;;;;;;5095390;28;20063;-46
2022/02/28 14:26:55;;;;;;;3.08;2.22;;;;;;;;;;5057344;28;19993;-45
2022/02/28 14:29:21;;;;;;;3.25;2.38;;;;;;;;;;5073872;28;20017;-49
2022/02/28 14:31:48;;;;;;;2.67;1.83;;;;;;;;;;5073061;28;20082;-49
2022/02/28 14:34:15;;;;;;;2.80;2.00;;;;;;;;;;5079301;28;20542;-48
2022/02/28 14:36:41;;;;;;;2.45;1.77;;;;;;;;;;5081515;28;20024;-45
2022/02/28 14:39:08;;;;;;;3.00;2.22;;;;;;;;;;5076596;28;20024;-48
2022/02/28 14:41:34;;;;;;;2.97;2.03;;;;;;;;;;5087209;28;20110;-45
2022/02/28 14:44:01;;;;;;;3.03;2.10;;;;;;;;;;5088959;28;20066;-47
2022/02/28 14:46:27;;;;;;;2.17;1.73;;;;;;;;;;5076749;28;20028;-46
2022/02/28 14:48:53;;;;;;;2.80;1.80;;;;;;;;;;5083683;28;20102;-44